Time;durP1;ratioP1;P1;durP2;ratioP2;P2;SDS_P1;SDS_P2;PMS_P1;PMS_P2;Temp;Humidity;BMP_temperature;BMP_pressure;BME280_temperature;BME280_humidity;BME280_pressure;Samples;Min_cycle;Max_cycle;Signal;HPM_P1;HPM_P2
2022/11/04 00:01:11;;;;;;;;;2.00;1.00;;;;;;;;5078687;27;45221;-72
2022/11/04 00:03:37;;;;;;;;;3.00;2.00;;;;;;;;5082344;27;45381;-72
2022/11/04 00:06:03;;;;;;;;;1.25;1.00;;;;;;;;5079229;27;45222;-72
2022/11/04 00:08:28;;;;;;;;;2.25;2.00;;;;;;;;5080139;27;45355;-72
2022/11/04 00:13:38;;;;;;;;;3.00;2.00;;;;;;;;5096815;27;45694;-72
2022/11/04 00:18:47;;;;;;;;;4.00;1.00;;;;;;;;5098390;27;45292;-72
2022/11/04 00:29:24;;;;;;;;;1.00;1.00;;;;;;;;5087238;27;45396;-72
2022/11/04 00:34:33;;;;;;;;;1.50;1.00;;;;;;;;5091641;27;45479;-72
2022/11/04 00:36:58;;;;;;;;;1.50;1.00;;;;;;;;5085208;27;45307;-72
2022/11/04 00:39:23;;;;;;;;;3.00;1.00;;;;;;;;5093080;27;45361;-73
2022/11/04 00:41:49;;;;;;;;;1.00;0.50;;;;;;;;5081575;27;47139;-72
2022/11/04 00:44:14;;;;;;;;;5.25;1.00;;;;;;;;5093842;27;45238;-72
2022/11/04 00:46:39;;;;;;;;;2.00;1.00;;;;;;;;5083565;27;45402;-72
2022/11/04 00:49:04;;;;;;;;;4.00;2.00;;;;;;;;5084951;27;45890;-72
2022/11/04 00:51:29;;;;;;;;;2.25;1.00;;;;;;;;5083824;27;45240;-72
2022/11/04 00:53:56;;;;;;;;;4.75;1.00;;;;;;;;5086088;27;45361;-72
2022/11/04 00:56:22;;;;;;;;;2.50;0.00;;;;;;;;5067155;27;45510;-72
2022/11/04 00:58:48;;;;;;;;;2.75;2.75;;;;;;;;5084764;27;45447;-72
2022/11/04 01:01:17;;;;;;;;;2.67;1.00;;;;;;;;5081681;27;45345;-72
2022/11/04 01:03:46;;;;;;;;;3.50;2.00;;;;;;;;5084907;27;45240;-72
2022/11/04 01:06:11;;;;;;;;;1.33;0.00;;;;;;;;5083679;27;45415;-72
2022/11/04 01:08:37;;;;;;;;;0.00;0.00;;;;;;;;5083823;27;45431;-72
2022/11/04 01:11:02;;;;;;;;;1.25;1.25;;;;;;;;5083374;27;45650;-72
2022/11/04 01:13:28;;;;;;;;;2.25;1.00;;;;;;;;5079095;27;47065;-72
2022/11/04 01:15:53;;;;;;;;;3.00;2.00;;;;;;;;5085086;27;45371;-72
2022/11/04 01:18:18;;;;;;;;;1.33;1.00;;;;;;;;5081535;27;45493;-72
2022/11/04 01:20:43;;;;;;;;;3.00;1.50;;;;;;;;5085945;27;45800;-73
2022/11/04 01:23:08;;;;;;;;;3.00;2.00;;;;;;;;5081789;27;45438;-72
2022/11/04 01:25:37;;;;;;;;;3.00;1.75;;;;;;;;5078304;27;45512;-72
2022/11/04 01:28:03;;;;;;;;;1.00;1.00;;;;;;;;5084073;27;45209;-73
2022/11/04 01:30:28;;;;;;;;;3.00;1.00;;;;;;;;5079217;27;45458;-72
2022/11/04 01:32:53;;;;;;;;;0.00;0.00;;;;;;;;5080340;27;47393;-72
2022/11/04 01:35:18;;;;;;;;;3.75;1.00;;;;;;;;5088413;27;45280;-72
2022/11/04 01:37:43;;;;;;;;;3.00;1.75;;;;;;;;5088028;27;45222;-73
2022/11/04 01:40:09;;;;;;;;;2.25;1.00;;;;;;;;5077789;27;45363;-73
2022/11/04 01:42:34;;;;;;;;;1.00;1.00;;;;;;;;5067145;27;47140;-74
2022/11/04 01:45:00;;;;;;;;;1.00;1.00;;;;;;;;5080590;27;45190;-72
2022/11/04 01:47:28;;;;;;;;;2.00;0.00;;;;;;;;5083663;27;45233;-72
2022/11/04 01:50:01;;;;;;;;;2.00;1.00;;;;;;;;5087795;27;45443;-73
2022/11/04 01:52:36;;;;;;;;;1.00;1.00;;;;;;;;5076159;27;47178;-72
2022/11/04 01:55:05;;;;;;;;;3.00;1.75;;;;;;;;5088551;27;45242;-72
2022/11/04 01:57:35;;;;;;;;;3.25;0.00;;;;;;;;5085677;27;45457;-73
2022/11/04 02:00:02;;;;;;;;;1.00;1.00;;;;;;;;5088686;27;45494;-72
2022/11/04 02:02:27;;;;;;;;;1.75;1.00;;;;;;;;5080260;27;46805;-72
2022/11/04 02:04:52;;;;;;;;;0.00;0.00;;;;;;;;5081366;27;45449;-72
2022/11/04 02:07:17;;;;;;;;;1.00;0.00;;;;;;;;5083971;27;45653;-72
2022/11/04 02:09:43;;;;;;;;;3.50;1.00;;;;;;;;5088459;27;45532;-72
2022/11/04 02:14:52;;;;;;;;;0.25;0.25;;;;;;;;5090314;27;45433;-72
2022/11/04 02:17:18;;;;;;;;;1.75;1.00;;;;;;;;5082481;27;45435;-72
2022/11/04 02:19:54;;;;;;;;;1.00;1.00;;;;;;;;5087264;27;45468;-72
2022/11/04 02:22:28;;;;;;;;;2.50;0.00;;;;;;;;5082323;27;45309;-72
2022/11/04 02:25:12;;;;;;;;;1.00;1.00;;;;;;;;5087152;27;45549;-72
2022/11/04 02:27:41;;;;;;;;;1.50;0.50;;;;;;;;5072426;27;45481;-72
2022/11/04 02:30:12;;;;;;;;;0.50;0.00;;;;;;;;5086437;27;45756;-72
2022/11/04 02:32:49;;;;;;;;;1.00;1.00;;;;;;;;5080286;27;45240;-72
2022/11/04 02:35:20;;;;;;;;;1.00;1.00;;;;;;;;5087415;27;45490;-72
2022/11/04 02:37:52;;;;;;;;;2.75;0.00;;;;;;;;5082723;27;45158;-72
2022/11/04 02:40:17;;;;;;;;;0.00;0.00;;;;;;;;5088182;27;45844;-72
2022/11/04 02:42:42;;;;;;;;;0.50;0.00;;;;;;;;5079264;27;47265;-72
2022/11/04 02:45:36;;;;;;;;;2.25;0.00;;;;;;;;5089067;27;45725;-72
2022/11/04 02:48:06;;;;;;;;;1.00;0.00;;;;;;;;5082694;27;45292;-72
2022/11/04 02:50:39;;;;;;;;;1.75;1.00;;;;;;;;5087966;27;45305;-72
2022/11/04 02:53:10;;;;;;;;;2.00;0.00;;;;;;;;5080197;27;46253;-72
2022/11/04 02:55:44;;;;;;;;;0.75;0.75;;;;;;;;5086774;27;45430;-73
2022/11/04 02:58:22;;;;;;;;;1.00;1.00;;;;;;;;5083668;27;45371;-72
2022/11/04 03:00:49;;;;;;;;;0.50;0.50;;;;;;;;5082160;27;45387;-72
2022/11/04 03:03:18;;;;;;;;;1.00;0.00;;;;;;;;5078961;27;45425;-71
2022/11/04 03:05:46;;;;;;;;;0.25;0.25;;;;;;;;5084352;27;45479;-72
2022/11/04 03:08:15;;;;;;;;;1.75;0.00;;;;;;;;5078329;27;45410;-72
2022/11/04 03:10:42;;;;;;;;;2.50;0.50;;;;;;;;5088022;27;45416;-72
2022/11/04 03:13:16;;;;;;;;;2.00;0.00;;;;;;;;5079512;27;46334;-73
2022/11/04 03:15:45;;;;;;;;;0.75;0.75;;;;;;;;5085643;27;45288;-73
2022/11/04 03:18:29;;;;;;;;;1.00;1.00;;;;;;;;5080350;27;45351;-73
2022/11/04 03:20:57;;;;;;;;;1.25;1.00;;;;;;;;5085441;27;45443;-72
2022/11/04 03:23:22;;;;;;;;;2.00;1.00;;;;;;;;5078230;27;47242;-72
2022/11/04 03:25:51;;;;;;;;;1.25;0.75;;;;;;;;5085345;27;45327;-72
2022/11/04 03:28:37;;;;;;;;;1.00;0.00;;;;;;;;5065664;27;45585;-72
2022/11/04 03:31:03;;;;;;;;;2.00;1.00;;;;;;;;5080466;27;46011;-72
2022/11/04 03:33:35;;;;;;;;;3.25;0.50;;;;;;;;5092716;27;45496;-72
2022/11/04 03:36:02;;;;;;;;;4.50;1.00;;;;;;;;5085158;27;45410;-72
2022/11/04 03:38:28;;;;;;;;;2.00;0.67;;;;;;;;5081616;27;45158;-72
2022/11/04 03:40:53;;;;;;;;;2.00;0.00;;;;;;;;5085076;27;45567;-72
2022/11/04 03:43:21;;;;;;;;;4.50;0.75;;;;;;;;5081319;27;46788;-72
2022/11/04 03:45:46;;;;;;;;;0.00;0.00;;;;;;;;5089544;27;45397;-72
2022/11/04 03:48:12;;;;;;;;;0.25;0.00;;;;;;;;5083887;27;45288;-72
2022/11/04 03:50:41;;;;;;;;;1.75;0.25;;;;;;;;5075965;27;45899;-73
2022/11/04 03:53:08;;;;;;;;;1.00;1.00;;;;;;;;5083239;27;45536;-72
2022/11/04 03:55:50;;;;;;;;;0.75;0.75;;;;;;;;5088009;27;45459;-72
2022/11/04 03:58:34;;;;;;;;;0.00;0.00;;;;;;;;5087256;27;45219;-72
2022/11/04 04:01:06;;;;;;;;;0.75;0.00;;;;;;;;5084981;27;46023;-72
2022/11/04 04:03:36;;;;;;;;;2.00;2.00;;;;;;;;5084086;27;45312;-72
2022/11/04 04:06:09;;;;;;;;;0.00;0.00;;;;;;;;5078432;27;45343;-72
2022/11/04 04:08:41;;;;;;;;;1.00;0.00;;;;;;;;5091904;27;45271;-72
2022/11/04 04:11:30;;;;;;;;;1.75;0.00;;;;;;;;5094959;27;45437;-72
2022/11/04 04:14:09;;;;;;;;;0.00;0.00;;;;;;;;5092686;27;45599;-72
2022/11/04 04:16:34;;;;;;;;;0.00;0.00;;;;;;;;5084228;27;45406;-72
2022/11/04 04:19:02;;;;;;;;;0.00;0.00;;;;;;;;5087496;27;45556;-72
2022/11/04 04:21:30;;;;;;;;;0.75;0.00;;;;;;;;5079088;27;45494;-72
2022/11/04 04:29:26;;;;;;;;;0.00;0.00;;;;;;;;5087635;27;45382;-72
2022/11/04 04:31:56;;;;;;;;;0.00;0.00;;;;;;;;5083853;27;45260;-72
2022/11/04 04:34:26;;;;;;;;;1.00;0.00;;;;;;;;5086327;27;47176;-72
2022/11/04 04:37:00;;;;;;;;;1.75;0.00;;;;;;;;5083823;27;45668;-72
2022/11/04 04:45:02;;;;;;;;;0.00;0.00;;;;;;;;5093794;27;45889;-72
2022/11/04 04:47:33;;;;;;;;;2.00;0.00;;;;;;;;5083519;27;45277;-72
2022/11/04 04:49:59;;;;;;;;;0.00;0.00;;;;;;;;5089084;27;45497;-72
2022/11/04 04:52:26;;;;;;;;;0.00;0.00;;;;;;;;5083589;27;45416;-72
2022/11/04 04:54:51;;;;;;;;;0.00;0.00;;;;;;;;5087432;27;46313;-72
2022/11/04 04:57:16;;;;;;;;;3.00;0.75;;;;;;;;5089873;27;45375;-72
2022/11/04 04:59:41;;;;;;;;;3.00;0.00;;;;;;;;5091761;27;45289;-72
2022/11/04 05:02:07;;;;;;;;;0.25;0.25;;;;;;;;5081456;27;45524;-72
2022/11/04 05:04:32;;;;;;;;;1.00;0.00;;;;;;;;5086346;27;45331;-72
2022/11/04 05:06:57;;;;;;;;;3.00;0.00;;;;;;;;5083434;27;45360;-72
2022/11/04 05:09:22;;;;;;;;;1.00;0.00;;;;;;;;5086715;27;45260;-72
2022/11/04 05:11:48;;;;;;;;;1.25;1.00;;;;;;;;5083291;27;45406;-72
2022/11/04 05:14:13;;;;;;;;;2.00;0.00;;;;;;;;5086530;27;45518;-72
2022/11/04 05:16:38;;;;;;;;;0.75;0.00;;;;;;;;5084568;27;45410;-72
2022/11/04 05:19:03;;;;;;;;;0.00;0.00;;;;;;;;5086495;27;45367;-72
2022/11/04 05:21:28;;;;;;;;;3.00;0.00;;;;;;;;5083061;27;45212;-72
2022/11/04 05:23:54;;;;;;;;;3.00;0.25;;;;;;;;5086645;27;45331;-72
2022/11/04 05:26:19;;;;;;;;;1.00;0.00;;;;;;;;5087814;27;45349;-72
2022/11/04 05:28:44;;;;;;;;;1.00;1.00;;;;;;;;5079453;27;45315;-72
2022/11/04 05:31:09;;;;;;;;;2.50;1.00;;;;;;;;5071103;27;46045;-72
2022/11/04 05:33:34;;;;;;;;;0.00;0.00;;;;;;;;5085058;27;45390;-72
2022/11/04 05:36:07;;;;;;;;;1.00;0.00;;;;;;;;5084341;27;45301;-72
2022/11/04 05:38:32;;;;;;;;;1.00;1.00;;;;;;;;5079331;27;45465;-73
2022/11/04 05:40:57;;;;;;;;;0.25;0.00;;;;;;;;5086539;27;45307;-73
2022/11/04 05:43:22;;;;;;;;;0.00;0.00;;;;;;;;5083347;27;45352;-72
2022/11/04 05:45:48;;;;;;;;;0.00;0.00;;;;;;;;5086108;27;45415;-72
2022/11/04 05:48:13;;;;;;;;;0.00;0.00;;;;;;;;5085658;27;45365;-72
2022/11/04 05:50:40;;;;;;;;;1.00;1.00;;;;;;;;5088696;27;45315;-74
2022/11/04 05:53:05;;;;;;;;;0.00;0.00;;;;;;;;5080948;27;45419;-72
2022/11/04 05:55:30;;;;;;;;;1.25;0.00;;;;;;;;5088081;27;45167;-72
2022/11/04 05:57:56;;;;;;;;;0.25;0.25;;;;;;;;5082773;27;45258;-73
2022/11/04 06:00:22;;;;;;;;;3.50;0.00;;;;;;;;5086837;27;46470;-72
2022/11/04 06:02:47;;;;;;;;;0.00;0.00;;;;;;;;5068698;27;47475;-72
2022/11/04 06:05:12;;;;;;;;;1.50;1.00;;;;;;;;5088836;27;45336;-72
2022/11/04 06:07:37;;;;;;;;;1.25;0.00;;;;;;;;5080492;27;45404;-72
2022/11/04 06:10:03;;;;;;;;;0.00;0.00;;;;;;;;5085765;27;45452;-73
2022/11/04 06:12:29;;;;;;;;;0.50;0.00;;;;;;;;5082249;27;46152;-72
2022/11/04 06:14:54;;;;;;;;;1.50;1.00;;;;;;;;5085614;27;45507;-73
2022/11/04 06:17:20;;;;;;;;;1.25;0.25;;;;;;;;5082927;27;45395;-73
2022/11/04 06:19:45;;;;;;;;;0.00;0.00;;;;;;;;5093341;27;45379;-73
2022/11/04 06:22:11;;;;;;;;;0.00;0.00;;;;;;;;5087540;27;45383;-73
2022/11/04 06:24:36;;;;;;;;;2.00;0.00;;;;;;;;5094836;27;45515;-73
2022/11/04 06:27:02;;;;;;;;;0.00;0.00;;;;;;;;5081776;27;45477;-72
2022/11/04 06:29:27;;;;;;;;;2.00;0.50;;;;;;;;5090977;27;45430;-72
2022/11/04 06:31:52;;;;;;;;;0.00;0.00;;;;;;;;5079949;27;47613;-72
2022/11/04 06:34:17;;;;;;;;;1.00;0.00;;;;;;;;5092210;27;45457;-72
2022/11/04 06:36:42;;;;;;;;;3.00;0.00;;;;;;;;5088085;27;45442;-73
2022/11/04 06:39:08;;;;;;;;;0.00;0.00;;;;;;;;5092934;27;45261;-72
2022/11/04 06:41:33;;;;;;;;;0.00;0.00;;;;;;;;5081400;27;45310;-72
2022/11/04 06:43:58;;;;;;;;;2.00;0.25;;;;;;;;5082988;27;45324;-72
2022/11/04 06:46:23;;;;;;;;;4.00;0.25;;;;;;;;5074083;27;45279;-72
2022/11/04 06:48:49;;;;;;;;;2.00;1.00;;;;;;;;5095145;27;45406;-72
2022/11/04 06:51:14;;;;;;;;;0.50;0.00;;;;;;;;5080141;27;47115;-73
2022/11/04 06:53:39;;;;;;;;;1.25;0.25;;;;;;;;5092618;27;45281;-72
2022/11/04 06:56:05;;;;;;;;;2.25;0.50;;;;;;;;5077653;27;45445;-70
2022/11/04 06:58:31;;;;;;;;;2.75;0.50;;;;;;;;5094545;27;45600;-71
2022/11/04 07:00:56;;;;;;;;;4.00;0.00;;;;;;;;5086960;27;45323;-71
2022/11/04 07:03:21;;;;;;;;;1.75;0.75;;;;;;;;5091801;27;45459;-73
2022/11/04 07:05:46;;;;;;;;;1.00;1.00;;;;;;;;5083927;27;45369;-72
2022/11/04 07:08:11;;;;;;;;;1.00;1.00;;;;;;;;5098887;27;45302;-71
2022/11/04 07:10:37;;;;;;;;;0.00;0.00;;;;;;;;5092705;27;45200;-72
2022/11/04 07:13:02;;;;;;;;;1.00;1.00;;;;;;;;5089159;27;45271;-71
2022/11/04 07:15:27;;;;;;;;;2.00;1.00;;;;;;;;5093200;27;45596;-71
2022/11/04 07:17:52;;;;;;;;;1.00;1.00;;;;;;;;5087410;27;45394;-71
2022/11/04 07:20:18;;;;;;;;;2.25;1.00;;;;;;;;5091854;27;45616;-71
2022/11/04 07:22:43;;;;;;;;;1.00;1.00;;;;;;;;5092094;27;45212;-71
2022/11/04 07:25:08;;;;;;;;;0.50;0.50;;;;;;;;5093670;27;45466;-72
2022/11/04 07:27:33;;;;;;;;;2.25;0.75;;;;;;;;5081402;27;45282;-71
2022/11/04 07:29:58;;;;;;;;;1.00;1.00;;;;;;;;5089848;27;45616;-72
2022/11/04 07:32:24;;;;;;;;;2.00;0.00;;;;;;;;5085969;27;45477;-71
2022/11/04 07:34:49;;;;;;;;;0.75;0.25;;;;;;;;5091318;27;45423;-71
2022/11/04 07:37:14;;;;;;;;;2.75;1.00;;;;;;;;5084658;27;45331;-72
2022/11/04 07:39:39;;;;;;;;;2.00;1.00;;;;;;;;5097138;27;45387;-73
2022/11/04 07:42:06;;;;;;;;;1.00;1.00;;;;;;;;5086480;27;45423;-73
2022/11/04 07:44:32;;;;;;;;;1.50;1.00;;;;;;;;5090826;27;45312;-73
2022/11/04 07:46:57;;;;;;;;;2.00;1.00;;;;;;;;5082418;27;45319;-72
2022/11/04 07:49:24;;;;;;;;;0.75;0.75;;;;;;;;5091489;27;45299;-71
2022/11/04 07:51:49;;;;;;;;;1.00;1.00;;;;;;;;5062710;28;45181;-71
2022/11/04 07:54:14;;;;;;;;;3.00;1.25;;;;;;;;5095693;27;45277;-72
2022/11/04 07:56:39;;;;;;;;;2.50;1.00;;;;;;;;5084447;27;45380;-71
2022/11/04 07:59:05;;;;;;;;;1.25;1.00;;;;;;;;5084896;27;45425;-71
2022/11/04 08:01:31;;;;;;;;;3.75;1.00;;;;;;;;5088161;27;45174;-71
2022/11/04 08:03:57;;;;;;;;;1.00;1.00;;;;;;;;5085469;27;45270;-71
2022/11/04 08:06:23;;;;;;;;;1.00;1.00;;;;;;;;5086506;27;45500;-71
2022/11/04 08:08:48;;;;;;;;;2.00;1.00;;;;;;;;5086515;27;45122;-73
2022/11/04 08:11:15;;;;;;;;;2.75;0.50;;;;;;;;5086139;27;45218;-71
2022/11/04 08:13:40;;;;;;;;;1.00;1.00;;;;;;;;5089914;27;45266;-71
2022/11/04 08:16:11;;;;;;;;;5.00;0.25;;;;;;;;5096686;27;45354;-71
2022/11/04 08:18:37;;;;;;;;;1.00;1.00;;;;;;;;5078944;27;45413;-71
2022/11/04 08:21:03;;;;;;;;;2.50;1.00;;;;;;;;5069663;28;45273;-71
2022/11/04 08:23:28;;;;;;;;;3.75;1.00;;;;;;;;5088344;27;45438;-73
2022/11/04 08:25:54;;;;;;;;;0.50;0.50;;;;;;;;5093092;27;45460;-71
2022/11/04 08:28:20;;;;;;;;;1.50;0.50;;;;;;;;5064492;27;47740;-72
2022/11/04 08:30:54;;;;;;;;;2.50;1.00;;;;;;;;5093190;27;45353;-71
2022/11/04 08:33:19;;;;;;;;;1.67;0.00;;;;;;;;5101589;27;45525;-72
2022/11/04 08:35:44;;;;;;;;;0.33;0.33;;;;;;;;5093769;27;45564;-71
2022/11/04 08:38:09;;;;;;;;;1.00;1.00;;;;;;;;5088404;27;45102;-72
2022/11/04 08:40:35;;;;;;;;;1.00;1.00;;;;;;;;5092244;27;45352;-71
2022/11/04 08:43:00;;;;;;;;;3.25;1.00;;;;;;;;5089085;27;45216;-71
2022/11/04 08:45:25;;;;;;;;;1.00;1.00;;;;;;;;5096038;27;45438;-71
2022/11/04 08:47:51;;;;;;;;;1.00;1.00;;;;;;;;5101084;27;45444;-72
2022/11/04 08:50:16;;;;;;;;;2.33;1.00;;;;;;;;5091840;27;45552;-71
2022/11/04 08:52:41;;;;;;;;;1.75;0.50;;;;;;;;5081900;27;45292;-71
2022/11/04 08:55:06;;;;;;;;;2.00;1.00;;;;;;;;5095027;27;45311;-71
2022/11/04 08:57:32;;;;;;;;;3.00;3.00;;;;;;;;5082140;27;45468;-70
2022/11/04 08:59:57;;;;;;;;;1.00;1.00;;;;;;;;5091215;27;45350;-71
2022/11/04 09:02:22;;;;;;;;;2.00;2.00;;;;;;;;5088093;27;45362;-71
2022/11/04 09:04:47;;;;;;;;;1.00;1.00;;;;;;;;5093303;27;45556;-71
2022/11/04 09:07:12;;;;;;;;;3.25;2.00;;;;;;;;5082009;27;46680;-72
2022/11/04 09:09:39;;;;;;;;;2.67;1.67;;;;;;;;5094085;27;45443;-72
2022/11/04 09:12:08;;;;;;;;;2.33;1.33;;;;;;;;5090219;27;45381;-71
2022/11/04 09:14:33;;;;;;;;;17.25;8.50;;;;;;;;5096706;27;45473;-72
2022/11/04 09:16:58;;;;;;;;;4.67;3.00;;;;;;;;5091432;27;45994;-72
2022/11/04 09:19:23;;;;;;;;;8.00;5.25;;;;;;;;5099891;27;44780;-71
2022/11/04 09:21:48;;;;;;;;;3.00;2.00;;;;;;;;5081678;27;45471;-72
2022/11/04 09:24:14;;;;;;;;;5.33;3.33;;;;;;;;5100424;27;45257;-72
2022/11/04 09:26:39;;;;;;;;;6.33;4.67;;;;;;;;5092389;27;46615;-71
2022/11/04 09:29:07;;;;;;;;;2.67;2.67;;;;;;;;5073502;27;45373;-71
2022/11/04 09:31:32;;;;;;;;;2.00;1.00;;;;;;;;5089019;27;45433;-71
2022/11/04 09:33:57;;;;;;;;;0.33;0.33;;;;;;;;5091930;27;45521;-72
2022/11/04 09:36:23;;;;;;;;;2.00;1.00;;;;;;;;5087962;27;45509;-72
2022/11/04 09:38:48;;;;;;;;;4.00;1.00;;;;;;;;5091690;27;45248;-72
2022/11/04 09:41:49;;;;;;;;;2.00;0.00;;;;;;;;5093212;27;45441;-72
2022/11/04 09:44:14;;;;;;;;;0.00;0.00;;;;;;;;5041068;28;45564;-72
2022/11/04 09:46:40;;;;;;;;;1.00;1.00;;;;;;;;5076945;27;45944;-72
2022/11/04 09:49:07;;;;;;;;;2.00;2.00;;;;;;;;5092523;27;45355;-72
2022/11/04 09:51:33;;;;;;;;;5.00;2.00;;;;;;;;5082533;27;45340;-72
2022/11/04 09:54:01;;;;;;;;;3.00;1.00;;;;;;;;5095982;27;45475;-72
2022/11/04 09:56:30;;;;;;;;;2.00;1.00;;;;;;;;5093100;27;47474;-72
2022/11/04 09:58:56;;;;;;;;;1.67;1.00;;;;;;;;5077141;27;45455;-72
2022/11/04 10:01:32;;;;;;;;;4.00;1.00;;;;;;;;5088721;27;45406;-72
2022/11/04 10:04:08;;;;;;;;;1.67;0.00;;;;;;;;5088207;27;46628;-72
2022/11/04 10:06:39;;;;;;;;;2.00;0.00;;;;;;;;5067761;27;47940;-72
2022/11/04 10:09:23;;;;;;;;;2.00;2.00;;;;;;;;5097945;27;45384;-70
2022/11/04 10:11:51;;;;;;;;;2.00;2.00;;;;;;;;5090589;27;45170;-70
2022/11/04 10:14:28;;;;;;;;;1.00;1.00;;;;;;;;5089271;27;45394;-71
2022/11/04 10:17:00;;;;;;;;;1.00;1.00;;;;;;;;5072558;28;47013;-71
2022/11/04 10:19:37;;;;;;;;;1.00;1.00;;;;;;;;5086729;27;45415;-71
2022/11/04 10:22:08;;;;;;;;;1.00;1.00;;;;;;;;5093687;27;45277;-71
2022/11/04 10:24:53;;;;;;;;;1.00;1.00;;;;;;;;5087085;27;45445;-70
2022/11/04 10:27:21;;;;;;;;;0.33;0.33;;;;;;;;5092517;27;45683;-70
2022/11/04 10:29:57;;;;;;;;;1.00;1.00;;;;;;;;5077474;27;45343;-70
2022/11/04 10:32:27;;;;;;;;;0.00;0.00;;;;;;;;5082751;27;45292;-70
2022/11/04 10:34:55;;;;;;;;;1.00;1.00;;;;;;;;5092003;27;45450;-71
2022/11/04 10:37:20;;;;;;;;;2.00;1.33;;;;;;;;5076246;27;46171;-69
2022/11/04 10:39:46;;;;;;;;;1.00;1.00;;;;;;;;5078137;27;45296;-71
2022/11/04 10:42:21;;;;;;;;;1.33;1.00;;;;;;;;5092957;27;45391;-72
2022/11/04 10:44:47;;;;;;;;;1.00;1.00;;;;;;;;5086381;27;45532;-72
2022/11/04 10:47:13;;;;;;;;;1.00;1.00;;;;;;;;5077648;27;46387;-71
2022/11/04 10:49:57;;;;;;;;;0.00;0.00;;;;;;;;5084733;27;45323;-71
2022/11/04 10:52:22;;;;;;;;;1.00;1.00;;;;;;;;5083977;27;45347;-72
2022/11/04 10:54:48;;;;;;;;;0.33;0.33;;;;;;;;5088238;27;45407;-72
2022/11/04 10:57:19;;;;;;;;;1.00;1.00;;;;;;;;5085324;27;45314;-71
2022/11/04 10:59:53;;;;;;;;;2.00;1.00;;;;;;;;5098568;27;45389;-74
2022/11/04 11:02:38;;;;;;;;;5.00;2.33;;;;;;;;5063907;28;45291;-76
2022/11/04 11:05:19;;;;;;;;;2.00;2.00;;;;;;;;5087909;27;45508;-75
2022/11/04 11:07:44;;;;;;;;;3.00;1.00;;;;;;;;5078984;27;46361;-76
2022/11/04 11:10:23;;;;;;;;;3.00;1.00;;;;;;;;5085194;27;45781;-76
2022/11/04 11:12:51;;;;;;;;;3.00;2.00;;;;;;;;5079441;27;45401;-75
2022/11/04 11:15:28;;;;;;;;;4.00;2.00;;;;;;;;5092607;27;45474;-75
2022/11/04 11:17:59;;;;;;;;;2.00;1.00;;;;;;;;5088197;27;48175;-75
2022/11/04 11:20:26;;;;;;;;;1.00;1.00;;;;;;;;5083618;27;45478;-75
2022/11/04 11:22:53;;;;;;;;;2.33;1.33;;;;;;;;5082068;27;45413;-76
2022/11/04 11:25:21;;;;;;;;;8.33;7.00;;;;;;;;5085870;27;44840;-77
2022/11/04 11:28:05;;;;;;;;;11.33;7.33;;;;;;;;5079556;27;45601;-79
2022/11/04 11:30:35;;;;;;;;;3.00;2.00;;;;;;;;5094523;27;45253;-79
2022/11/04 11:33:03;;;;;;;;;2.00;2.00;;;;;;;;5078280;27;45276;-77
2022/11/04 11:35:31;;;;;;;;;2.00;0.00;;;;;;;;5080279;27;46216;-78
2022/11/04 11:37:57;;;;;;;;;4.00;2.00;;;;;;;;5084756;27;46047;-79
2022/11/04 11:40:37;;;;;;;;;1.33;1.33;;;;;;;;5078008;27;45413;-79
2022/11/04 11:43:03;;;;;;;;;8.00;5.00;;;;;;;;5085340;27;45252;-78
2022/11/04 11:45:29;;;;;;;;;6.00;4.00;;;;;;;;5089195;27;45329;-79
2022/11/04 11:47:55;;;;;;;;;3.67;2.00;;;;;;;;5094604;27;45346;-79
2022/11/04 11:50:23;;;;;;;;;4.00;3.33;;;;;;;;5086339;27;45209;-79
2022/11/04 11:52:48;;;;;;;;;4.00;2.00;;;;;;;;5086187;27;45260;-79
2022/11/04 11:55:23;;;;;;;;;2.00;1.00;;;;;;;;5092506;27;45454;-80
2022/11/04 11:58:06;;;;;;;;;1.00;1.00;;;;;;;;5088918;27;45213;-79
2022/11/04 12:00:37;;;;;;;;;1.00;1.00;;;;;;;;5088859;27;45203;-78
2022/11/04 12:03:21;;;;;;;;;2.00;2.00;;;;;;;;5092454;27;45359;-78
2022/11/04 12:05:54;;;;;;;;;1.67;1.67;;;;;;;;5088565;27;45350;-78
2022/11/04 12:08:19;;;;;;;;;3.67;2.00;;;;;;;;5064633;27;46698;-78
2022/11/04 12:10:52;;;;;;;;;1.67;1.67;;;;;;;;5096957;27;45418;-77
2022/11/04 12:13:20;;;;;;;;;2.00;2.00;;;;;;;;5089226;27;45411;-78
2022/11/04 12:16:05;;;;;;;;;4.67;4.00;;;;;;;;5081845;27;45683;-79
2022/11/04 12:18:46;;;;;;;;;4.00;4.00;;;;;;;;5101930;27;45610;-79
2022/11/04 12:21:19;;;;;;;;;5.00;3.33;;;;;;;;5086329;27;45269;-78
2022/11/04 12:23:50;;;;;;;;;2.67;2.33;;;;;;;;5096289;27;45468;-78
2022/11/04 12:26:33;;;;;;;;;2.00;2.00;;;;;;;;5095236;27;45411;-78
2022/11/04 12:29:01;;;;;;;;;2.00;2.00;;;;;;;;5098652;27;46297;-75
2022/11/04 12:31:27;;;;;;;;;1.00;1.00;;;;;;;;5075870;27;45644;-74
2022/11/04 12:33:58;;;;;;;;;1.00;1.00;;;;;;;;5098795;27;45429;-75
2022/11/04 12:36:29;;;;;;;;;2.00;2.00;;;;;;;;5085998;27;45622;-75
2022/11/04 12:38:58;;;;;;;;;2.00;1.33;;;;;;;;5088001;27;46020;-76
2022/11/04 12:41:32;;;;;;;;;2.67;1.00;;;;;;;;5084648;27;45348;-75
2022/11/04 12:43:58;;;;;;;;;2.00;2.00;;;;;;;;5076385;27;45434;-75
2022/11/04 12:46:29;;;;;;;;;3.00;2.00;;;;;;;;5073479;27;46338;-75
2022/11/04 12:49:03;;;;;;;;;3.00;2.00;;;;;;;;5096590;27;46509;-75
2022/11/04 12:51:28;;;;;;;;;2.00;2.00;;;;;;;;5082910;27;45424;-75
2022/11/04 12:54:06;;;;;;;;;2.33;2.00;;;;;;;;5079679;27;45616;-75
2022/11/04 12:56:39;;;;;;;;;2.00;2.00;;;;;;;;5080204;27;47154;-75
2022/11/04 12:59:23;;;;;;;;;1.33;1.33;;;;;;;;5085490;27;46439;-75
2022/11/04 13:01:48;;;;;;;;;2.00;1.00;;;;;;;;5073589;27;45496;-75
2022/11/04 13:04:27;;;;;;;;;1.00;1.00;;;;;;;;5085117;27;45454;-74
2022/11/04 13:06:59;;;;;;;;;1.00;0.00;;;;;;;;5093424;27;45316;-75
2022/11/04 13:09:24;;;;;;;;;2.00;1.00;;;;;;;;5086855;27;46150;-73
2022/11/04 13:11:57;;;;;;;;;2.00;1.00;;;;;;;;5082487;27;44805;-75
2022/11/04 13:14:28;;;;;;;;;1.00;1.00;;;;;;;;5087091;27;45379;-75
2022/11/04 13:16:55;;;;;;;;;1.00;1.00;;;;;;;;5082704;27;45468;-77
2022/11/04 13:19:24;;;;;;;;;3.00;1.33;;;;;;;;5084303;27;45454;-77
2022/11/04 13:21:50;;;;;;;;;0.00;0.00;;;;;;;;5083769;27;45338;-77
2022/11/04 13:24:18;;;;;;;;;1.00;1.00;;;;;;;;5088437;27;45378;-77
2022/11/04 13:26:43;;;;;;;;;3.67;2.00;;;;;;;;5084402;27;45284;-78
2022/11/04 13:29:14;;;;;;;;;2.33;1.67;;;;;;;;5079217;27;46593;-77
2022/11/04 13:31:45;;;;;;;;;1.67;1.67;;;;;;;;5082866;27;45270;-77
2022/11/04 13:34:16;;;;;;;;;2.00;1.33;;;;;;;;5086085;27;45497;-78
2022/11/04 13:36:57;;;;;;;;;2.00;2.00;;;;;;;;5095041;27;45225;-78
2022/11/04 13:39:25;;;;;;;;;1.00;1.00;;;;;;;;5093774;27;45493;-76
2022/11/04 13:41:54;;;;;;;;;3.33;1.00;;;;;;;;5084595;27;44755;-76
2022/11/04 13:44:24;;;;;;;;;2.00;1.00;;;;;;;;5088644;27;45470;-77
2022/11/04 13:46:51;;;;;;;;;1.33;1.00;;;;;;;;5087706;27;45339;-77
2022/11/04 13:49:29;;;;;;;;;1.00;1.00;;;;;;;;5085236;27;45367;-77
2022/11/04 13:52:06;;;;;;;;;0.33;0.33;;;;;;;;5081954;27;45249;-76
2022/11/04 13:54:36;;;;;;;;;2.00;2.00;;;;;;;;5095643;27;45417;-74
2022/11/04 13:57:21;;;;;;;;;1.00;1.00;;;;;;;;5092761;27;45448;-76
2022/11/04 14:00:05;;;;;;;;;1.00;1.00;;;;;;;;5092408;27;45351;-76
2022/11/04 14:02:40;;;;;;;;;2.67;1.33;;;;;;;;5083943;27;45374;-76
2022/11/04 14:05:24;;;;;;;;;0.00;0.00;;;;;;;;5089134;27;45458;-75
2022/11/04 14:08:01;;;;;;;;;2.67;2.67;;;;;;;;5084399;27;45718;-76
2022/11/04 14:10:44;;;;;;;;;1.67;1.67;;;;;;;;5088238;27;45586;-76
2022/11/04 14:13:24;;;;;;;;;2.00;2.00;;;;;;;;5079563;27;45826;-76
2022/11/04 14:16:05;;;;;;;;;2.67;2.67;;;;;;;;5092190;27;45305;-75
2022/11/04 14:18:30;;;;;;;;;3.00;3.00;;;;;;;;5099353;27;45446;-75
2022/11/04 14:21:04;;;;;;;;;3.67;3.67;;;;;;;;5076657;27;47217;-76
2022/11/04 14:23:30;;;;;;;;;6.00;4.33;;;;;;;;5091935;27;45364;-75
2022/11/04 14:26:04;;;;;;;;;4.00;4.00;;;;;;;;5094440;27;45499;-74
2022/11/04 14:28:30;;;;;;;;;3.00;3.00;;;;;;;;5089293;27;45488;-75
2022/11/04 14:30:57;;;;;;;;;6.00;6.00;;;;;;;;5076536;27;45635;-75
2022/11/04 14:33:33;;;;;;;;;3.67;3.00;;;;;;;;5093594;27;45237;-75
2022/11/04 14:36:14;;;;;;;;;3.33;2.00;;;;;;;;5095130;27;45336;-75
2022/11/04 14:38:39;;;;;;;;;3.67;3.67;;;;;;;;5088679;27;45300;-74
2022/11/04 14:41:20;;;;;;;;;5.00;3.00;;;;;;;;5084910;27;45461;-75
2022/11/04 14:43:46;;;;;;;;;3.00;3.00;;;;;;;;5091020;27;45288;-75
2022/11/04 14:46:16;;;;;;;;;3.00;3.00;;;;;;;;5082261;27;45332;-75
2022/11/04 14:48:50;;;;;;;;;3.33;3.33;;;;;;;;5074823;27;45413;-75
2022/11/04 14:51:38;;;;;;;;;4.00;4.00;;;;;;;;5083723;27;45320;-74
2022/11/04 14:54:18;;;;;;;;;3.67;3.67;;;;;;;;5084658;27;45174;-75
2022/11/04 14:56:45;;;;;;;;;4.00;2.33;;;;;;;;5085122;27;45319;-74
2022/11/04 14:59:19;;;;;;;;;4.00;3.00;;;;;;;;5066172;27;46336;-74
2022/11/04 15:01:44;;;;;;;;;3.00;3.00;;;;;;;;5079887;27;45652;-75
2022/11/04 15:04:17;;;;;;;;;3.33;3.00;;;;;;;;5092216;27;45497;-76
2022/11/04 15:06:42;;;;;;;;;3.67;2.00;;;;;;;;5088279;27;45320;-75
2022/11/04 15:09:19;;;;;;;;;1.00;1.00;;;;;;;;5086108;27;45820;-75
2022/11/04 15:14:28;;;;;;;;;1.33;1.33;;;;;;;;5088587;27;45386;-75
2022/11/04 15:16:55;;;;;;;;;1.00;1.00;;;;;;;;5090142;27;45425;-75
2022/11/04 15:19:30;;;;;;;;;0.00;0.00;;;;;;;;5072187;27;46340;-75
2022/11/04 15:21:57;;;;;;;;;2.00;0.00;;;;;;;;5087545;27;45374;-75
2022/11/04 15:24:23;;;;;;;;;1.00;1.00;;;;;;;;5091696;27;45462;-75
2022/11/04 15:26:50;;;;;;;;;2.00;0.00;;;;;;;;5081352;27;45269;-75